createdAt,value
2018-06-30T00:01:36.816Z,98198.00
2018-06-30T00:04:05.556Z,98194.00
2018-06-30T00:06:34.138Z,98191.00
2018-06-30T00:09:02.998Z,98198.00
2018-06-30T00:11:31.839Z,98194.00
2018-06-30T00:14:00.996Z,98199.00
2018-06-30T00:16:29.828Z,98196.00
2018-06-30T00:18:58.671Z,98196.00
2018-06-30T00:21:27.603Z,98197.00
2018-06-30T00:23:56.263Z,98199.00
2018-06-30T00:26:24.753Z,98206.00
2018-06-30T00:28:53.254Z,98202.00
2018-06-30T00:31:21.761Z,98207.00
2018-06-30T00:33:50.338Z,98205.00
2018-06-30T00:36:18.856Z,98197.00
2018-06-30T00:38:47.363Z,98206.00
2018-06-30T00:41:16.416Z,98199.00
2018-06-30T00:43:44.913Z,98198.00
2018-06-30T00:46:13.399Z,98195.00
2018-06-30T00:48:41.984Z,98188.00
2018-06-30T00:51:10.504Z,98187.00
2018-06-30T00:53:39.243Z,98182.00
2018-06-30T00:56:08.079Z,98187.00
2018-06-30T00:58:36.966Z,98188.00
2018-06-30T01:01:05.941Z,98187.00
2018-06-30T01:03:34.571Z,98193.00
2018-06-30T01:06:03.159Z,98194.00
2018-06-30T01:08:31.663Z,98194.00
2018-06-30T01:11:00.192Z,98192.00
2018-06-30T01:13:28.715Z,98193.00
2018-06-30T01:15:57.232Z,98187.00
2018-06-30T01:18:25.735Z,98193.00
2018-06-30T01:20:54.268Z,98198.00
2018-06-30T01:23:22.899Z,98196.00
2018-06-30T01:25:51.426Z,98192.00
2018-06-30T01:28:19.986Z,98191.00
2018-06-30T01:30:48.495Z,98192.00
2018-06-30T01:33:16.998Z,98189.00
2018-06-30T01:35:45.513Z,98195.00
2018-06-30T01:38:14.016Z,98206.00
2018-06-30T01:40:42.543Z,98202.00
2018-06-30T01:43:11.030Z,98202.00
2018-06-30T01:45:39.540Z,98205.00
2018-06-30T01:48:08.051Z,98210.00
2018-06-30T01:50:36.571Z,98205.00
2018-06-30T01:53:05.323Z,98205.00
2018-06-30T01:55:34.180Z,98203.00
2018-06-30T01:58:03.021Z,98206.00
2018-06-30T02:00:31.849Z,98201.00
2018-06-30T02:03:00.463Z,98201.00
2018-06-30T02:05:29.018Z,98194.00
2018-06-30T02:07:57.539Z,98193.00
2018-06-30T02:10:26.016Z,98201.00
2018-06-30T02:12:54.755Z,98204.00
2018-06-30T02:15:23.583Z,98199.00
2018-06-30T02:17:52.406Z,98204.00
2018-06-30T02:20:21.253Z,98191.00
2018-06-30T02:22:49.915Z,98198.00
2018-06-30T02:25:18.428Z,98198.00
2018-06-30T02:27:46.965Z,98193.00
2018-06-30T02:30:15.448Z,98193.00
2018-06-30T02:32:44.171Z,98194.00
2018-06-30T02:35:13.013Z,98199.00
2018-06-30T02:37:41.862Z,98205.00
2018-06-30T02:40:10.786Z,98201.00
2018-06-30T02:42:39.618Z,98199.00
2018-06-30T02:45:08.577Z,98197.00
2018-06-30T02:47:38.888Z,98203.00
2018-06-30T02:50:08.116Z,98202.00
2018-06-30T02:52:36.998Z,98210.00
2018-06-30T02:55:05.999Z,98204.00
2018-06-30T02:57:34.856Z,98200.00
2018-06-30T03:00:03.838Z,98202.00
2018-06-30T03:02:32.689Z,98197.00
2018-06-30T03:05:01.528Z,98195.00
2018-06-30T03:07:30.373Z,98196.00
2018-06-30T03:09:59.188Z,98198.00
2018-06-30T03:12:28.051Z,98195.00
2018-06-30T03:14:56.941Z,98196.00
2018-06-30T03:17:25.796Z,98197.00
2018-06-30T03:19:54.703Z,98199.00
2018-06-30T03:22:23.379Z,98195.00
2018-06-30T03:24:52.116Z,98198.00
2018-06-30T03:27:20.643Z,98197.00
2018-06-30T03:29:49.211Z,98200.00
2018-06-30T03:32:17.736Z,98201.00
2018-06-30T03:34:46.223Z,98204.00
2018-06-30T03:37:14.782Z,98201.00
2018-06-30T03:39:43.271Z,98204.00
2018-06-30T03:42:11.816Z,98204.00
2018-06-30T03:44:40.384Z,98205.00
2018-06-30T03:47:08.923Z,98204.00
2018-06-30T03:49:37.486Z,98204.00
2018-06-30T03:52:06.003Z,98203.00
2018-06-30T03:54:34.478Z,98207.00
2018-06-30T03:57:03.027Z,98205.00
2018-06-30T03:59:31.568Z,98200.00
2018-06-30T04:02:00.076Z,98208.00
2018-06-30T04:04:28.606Z,98208.00
2018-06-30T04:06:57.154Z,98211.00
2018-06-30T04:09:25.706Z,98207.00
2018-06-30T04:11:54.430Z,98210.00
2018-06-30T04:14:23.300Z,98213.00
2018-06-30T04:16:52.235Z,98208.00
2018-06-30T04:19:21.048Z,98206.00
2018-06-30T04:21:49.700Z,98203.00
2018-06-30T04:24:18.183Z,98211.00
2018-06-30T04:26:46.683Z,98202.00
2018-06-30T04:29:15.254Z,98199.00
2018-06-30T04:31:43.786Z,98206.00
2018-06-30T04:34:12.340Z,98203.00
2018-06-30T04:36:40.893Z,98207.00
2018-06-30T04:39:10.026Z,98207.00
2018-06-30T04:41:38.775Z,98208.00
2018-06-30T04:44:07.706Z,98209.00
2018-06-30T04:46:36.603Z,98214.00
2018-06-30T04:49:05.448Z,98215.00
2018-06-30T04:51:34.260Z,98214.00
2018-06-30T04:54:03.123Z,98218.00
2018-06-30T04:56:32.011Z,98218.00
2018-06-30T04:59:00.883Z,98220.00
2018-06-30T05:01:29.795Z,98223.00
2018-06-30T05:03:58.663Z,98217.00
2018-06-30T05:06:27.499Z,98221.00
2018-06-30T05:08:56.365Z,98224.00
2018-06-30T05:11:25.163Z,98225.00
2018-06-30T05:13:54.400Z,98227.00
2018-06-30T05:16:23.482Z,98224.00
2018-06-30T05:18:52.345Z,98225.00
2018-06-30T05:21:21.026Z,98234.00
2018-06-30T05:23:49.534Z,98230.00
2018-06-30T05:26:18.077Z,98232.00
2018-06-30T05:28:46.595Z,98231.00
2018-06-30T05:31:15.428Z,98230.00
2018-06-30T05:33:44.398Z,98233.00
2018-06-30T05:36:14.025Z,98229.00
2018-06-30T05:38:43.490Z,98233.00
2018-06-30T05:41:12.416Z,98231.00
2018-06-30T05:43:41.378Z,98240.00
2018-06-30T05:46:10.383Z,98237.00
2018-06-30T05:48:40.303Z,98235.00
2018-06-30T05:51:08.972Z,98233.00
2018-06-30T05:53:37.540Z,98236.00
2018-06-30T05:56:06.148Z,98235.00
2018-06-30T05:58:34.808Z,98237.00
2018-06-30T06:01:03.466Z,98234.00
2018-06-30T06:03:32.049Z,98234.00
2018-06-30T06:06:00.602Z,98234.00
2018-06-30T06:08:29.310Z,98237.00
2018-06-30T06:10:58.088Z,98238.00
2018-06-30T06:13:26.968Z,98238.00
2018-06-30T06:15:55.920Z,98234.00
2018-06-30T06:18:24.773Z,98235.00
2018-06-30T06:20:53.484Z,98234.00
2018-06-30T06:23:22.101Z,98232.00
2018-06-30T06:25:50.718Z,98233.00
2018-06-30T06:28:19.365Z,98241.00
2018-06-30T06:30:47.993Z,98240.00
2018-06-30T06:33:18.286Z,98240.00
2018-06-30T06:35:47.023Z,98239.00
2018-06-30T06:38:15.958Z,98236.00
2018-06-30T06:40:44.736Z,98237.00
2018-06-30T06:43:13.603Z,98230.00
2018-06-30T06:45:42.544Z,98228.00
2018-06-30T06:48:11.464Z,98228.00
2018-06-30T06:50:41.056Z,98233.00
2018-06-30T06:53:09.954Z,98234.00
2018-06-30T06:55:39.374Z,98235.00
2018-06-30T06:58:08.291Z,98229.00
2018-06-30T07:00:36.980Z,98230.00
2018-06-30T07:03:05.687Z,98235.00
2018-06-30T07:05:34.212Z,98232.00
2018-06-30T07:08:03.064Z,98230.00
2018-06-30T07:10:31.651Z,98233.00
2018-06-30T07:13:00.428Z,98231.00
2018-06-30T07:15:29.002Z,98235.00
2018-06-30T07:17:57.581Z,98233.00
2018-06-30T07:20:26.774Z,98231.00
2018-06-30T07:22:55.807Z,98230.00
2018-06-30T07:25:24.846Z,98227.00
2018-06-30T07:27:53.712Z,98229.00
2018-06-30T07:30:22.616Z,98225.00
2018-06-30T07:32:51.328Z,98227.00
2018-06-30T07:35:19.821Z,98225.00
2018-06-30T07:37:48.352Z,98228.00
2018-06-30T07:40:16.863Z,98227.00
2018-06-30T07:42:45.624Z,98229.00
2018-06-30T07:45:14.461Z,98228.00
2018-06-30T07:47:43.315Z,98226.00
2018-06-30T07:50:12.202Z,98226.00
2018-06-30T07:52:41.191Z,98227.00
2018-06-30T07:55:09.994Z,98226.00
2018-06-30T07:57:38.611Z,98227.00
2018-06-30T08:00:07.195Z,98225.00
2018-06-30T08:02:35.794Z,98225.00
2018-06-30T08:05:04.796Z,98227.00
2018-06-30T08:07:33.348Z,98222.00
2018-06-30T08:10:02.001Z,98223.00
2018-06-30T08:12:30.534Z,98226.00
2018-06-30T08:14:59.151Z,98219.00
2018-06-30T08:17:27.783Z,98223.00
2018-06-30T08:19:56.296Z,98223.00
2018-06-30T08:22:25.031Z,98222.00
2018-06-30T08:24:53.856Z,98221.00
2018-06-30T08:27:22.935Z,98213.00
2018-06-30T08:29:51.928Z,98210.00
2018-06-30T08:32:20.854Z,98208.00
2018-06-30T08:34:49.581Z,98215.00
2018-06-30T08:37:18.191Z,98207.00
2018-06-30T08:39:46.753Z,98207.00
2018-06-30T08:42:15.341Z,98207.00
2018-06-30T08:44:44.242Z,98207.00
2018-06-30T08:47:13.094Z,98205.00
2018-06-30T08:49:41.961Z,98209.00
2018-06-30T08:52:10.905Z,98208.00
2018-06-30T08:54:39.896Z,98203.00
2018-06-30T08:57:08.857Z,98207.00
2018-06-30T08:59:38.203Z,98208.00
2018-06-30T09:02:07.059Z,98206.00
2018-06-30T09:04:35.963Z,98203.00
2018-06-30T09:07:04.709Z,98204.00
2018-06-30T09:09:33.279Z,98209.00
2018-06-30T09:12:01.972Z,98209.00
2018-06-30T09:14:30.501Z,98209.00
2018-06-30T09:16:59.101Z,98201.00
2018-06-30T09:19:27.748Z,98202.00
2018-06-30T09:21:56.366Z,98204.00
2018-06-30T09:24:24.982Z,98199.00
2018-06-30T09:26:53.886Z,98196.00
2018-06-30T09:29:22.758Z,98191.00
2018-06-30T09:31:51.690Z,98196.00
2018-06-30T09:34:20.676Z,98198.00
2018-06-30T09:36:49.341Z,98197.00
2018-06-30T09:39:17.966Z,98200.00
2018-06-30T09:41:46.598Z,98198.00
2018-06-30T09:44:15.213Z,98198.00
2018-06-30T09:46:43.944Z,98196.00
2018-06-30T09:49:12.581Z,98197.00
2018-06-30T09:51:41.303Z,98198.00
2018-06-30T09:54:09.925Z,98194.00
2018-06-30T09:56:38.678Z,98200.00
2018-06-30T09:59:07.786Z,98196.00
2018-06-30T10:01:36.731Z,98195.00
2018-06-30T10:04:05.693Z,98197.00
2018-06-30T10:06:34.626Z,98200.00
2018-06-30T10:09:05.620Z,98201.00
2018-06-30T10:11:34.969Z,98199.00
2018-06-30T10:14:03.704Z,98196.00
2018-06-30T10:16:32.433Z,98196.00
2018-06-30T10:19:01.289Z,98198.00
2018-06-30T10:21:29.956Z,98188.00
2018-06-30T10:23:58.923Z,98190.00
2018-06-30T10:26:27.905Z,98185.00
2018-06-30T10:28:56.975Z,98191.00
2018-06-30T10:31:25.931Z,98189.00
2018-06-30T10:33:54.915Z,98191.00
2018-06-30T10:36:23.892Z,98185.00
2018-06-30T10:38:52.822Z,98188.00
2018-06-30T10:41:21.772Z,98185.00
2018-06-30T10:43:50.710Z,98181.00
2018-06-30T10:46:19.686Z,98175.00
2018-06-30T10:48:48.679Z,98182.00
2018-06-30T10:51:17.658Z,98175.00
2018-06-30T10:53:46.558Z,98182.00
2018-06-30T10:56:15.449Z,98168.00
2018-06-30T10:58:44.346Z,98172.00
2018-06-30T11:01:13.477Z,98164.00
2018-06-30T11:03:43.539Z,98161.00
2018-06-30T11:06:12.417Z,98164.00
2018-06-30T11:08:41.386Z,98155.00
2018-06-30T11:11:10.424Z,98152.00
2018-06-30T11:13:39.365Z,98150.00
2018-06-30T11:16:09.121Z,98143.00
2018-06-30T11:18:38.127Z,98144.00
2018-06-30T11:21:07.102Z,98142.00
2018-06-30T11:23:36.352Z,98139.00
2018-06-30T11:26:05.261Z,98140.00
2018-06-30T11:28:34.196Z,98132.00
2018-06-30T11:31:03.148Z,98133.00
2018-06-30T11:33:31.836Z,98130.00
2018-06-30T11:36:00.416Z,98127.00
2018-06-30T11:38:29.036Z,98127.00
2018-06-30T11:40:58.181Z,98126.00
2018-06-30T11:43:27.013Z,98125.00
2018-06-30T11:45:55.941Z,98124.00
2018-06-30T11:48:25.283Z,98128.00
2018-06-30T11:50:54.258Z,98118.00
2018-06-30T11:53:23.009Z,98123.00
2018-06-30T11:55:51.866Z,98120.00
2018-06-30T11:58:20.353Z,98116.00
2018-06-30T12:00:49.135Z,98119.00
2018-06-30T12:03:17.974Z,98113.00
2018-06-30T12:05:47.519Z,98115.00
2018-06-30T12:08:16.553Z,98119.00
2018-06-30T12:10:45.521Z,98116.00
2018-06-30T12:13:14.578Z,98114.00
2018-06-30T12:15:43.560Z,98109.00
2018-06-30T12:18:12.526Z,98108.00
2018-06-30T12:20:42.437Z,98111.00
2018-06-30T12:23:11.777Z,98103.00
2018-06-30T12:25:40.669Z,98102.00
2018-06-30T12:28:09.285Z,98105.00
2018-06-30T12:30:37.871Z,98096.00
2018-06-30T12:33:07.408Z,98101.00
2018-06-30T12:35:36.452Z,98102.00
2018-06-30T12:38:05.625Z,98100.00
2018-06-30T12:40:34.601Z,98092.00
2018-06-30T12:43:03.759Z,98096.00
2018-06-30T12:45:32.416Z,98096.00
2018-06-30T12:48:00.984Z,98097.00
2018-06-30T12:50:29.639Z,98098.00
2018-06-30T12:52:58.345Z,98097.00
2018-06-30T12:55:27.696Z,98093.00
2018-06-30T12:57:56.492Z,98095.00
2018-06-30T13:00:25.171Z,98095.00
2018-06-30T13:02:53.911Z,98098.00
2018-06-30T13:05:22.611Z,98096.00
2018-06-30T13:07:51.769Z,98097.00
2018-06-30T13:10:20.514Z,98093.00
2018-06-30T13:12:49.741Z,98091.00
2018-06-30T13:15:18.893Z,98087.00
2018-06-30T13:17:48.859Z,98092.00
2018-06-30T13:20:18.007Z,98086.00
2018-06-30T13:22:47.058Z,98079.00
2018-06-30T13:25:16.393Z,98083.00
2018-06-30T13:27:45.094Z,98077.00
2018-06-30T13:30:13.742Z,98079.00
2018-06-30T13:32:42.441Z,98074.00
2018-06-30T13:35:11.116Z,98073.00
2018-06-30T13:37:39.821Z,98067.00
2018-06-30T13:40:08.526Z,98071.00
2018-06-30T13:42:37.138Z,98073.00
2018-06-30T13:45:07.493Z,98072.00
2018-06-30T13:47:36.143Z,98068.00
2018-06-30T13:50:06.507Z,98062.00
2018-06-30T13:52:35.729Z,98061.00
2018-06-30T13:55:05.081Z,98065.00
2018-06-30T13:57:34.689Z,98056.00
2018-06-30T14:00:04.521Z,98060.00
2018-06-30T14:02:33.458Z,98053.00
2018-06-30T14:05:02.371Z,98050.00
2018-06-30T14:07:31.415Z,98045.00
2018-06-30T14:10:01.528Z,98044.00
2018-06-30T14:12:30.475Z,98042.00
2018-06-30T14:14:59.409Z,98040.00
2018-06-30T14:17:28.508Z,98046.00
2018-06-30T14:19:57.536Z,98040.00
2018-06-30T14:22:26.601Z,98038.00
2018-06-30T14:24:55.593Z,98035.00
2018-06-30T14:27:25.066Z,98030.00
2018-06-30T14:29:54.633Z,98035.00
2018-06-30T14:32:24.351Z,98032.00
2018-06-30T14:34:53.027Z,98026.00
2018-06-30T14:37:21.950Z,98035.00
2018-06-30T14:39:50.872Z,98035.00
2018-06-30T14:42:19.918Z,98032.00
2018-06-30T14:44:48.907Z,98027.00
2018-06-30T14:47:17.887Z,98025.00
2018-06-30T14:49:46.825Z,98032.00
2018-06-30T14:52:15.835Z,98026.00
2018-06-30T14:54:44.768Z,98026.00
2018-06-30T14:57:13.504Z,98025.00
2018-06-30T14:59:42.178Z,98017.00
2018-06-30T15:02:10.848Z,98016.00
2018-06-30T15:04:39.461Z,98021.00
2018-06-30T15:07:08.138Z,98018.00
2018-06-30T15:09:36.926Z,98013.00
2018-06-30T15:12:06.708Z,98008.00
2018-06-30T15:14:35.361Z,98011.00
2018-06-30T15:17:04.306Z,98008.00
2018-06-30T15:19:32.993Z,98005.00
2018-06-30T15:22:01.741Z,98006.00
2018-06-30T15:24:30.961Z,98003.00
2018-06-30T15:26:59.613Z,97998.00
2018-06-30T15:29:28.418Z,97998.00
2018-06-30T15:31:57.386Z,97994.00
2018-06-30T15:34:26.256Z,97989.00
2018-06-30T15:36:55.103Z,97991.00
2018-06-30T15:39:23.789Z,97988.00
2018-06-30T15:41:52.315Z,97985.00
2018-06-30T15:44:20.861Z,97984.00
2018-06-30T15:46:49.425Z,97982.00
2018-06-30T15:49:18.071Z,97982.00
2018-06-30T15:51:46.626Z,97977.00
2018-06-30T15:54:15.305Z,97977.00
2018-06-30T15:56:43.939Z,97976.00
2018-06-30T15:59:12.451Z,97978.00
2018-06-30T16:01:41.453Z,97976.00
2018-06-30T16:04:10.436Z,97977.00
2018-06-30T16:06:39.313Z,97981.00
2018-06-30T16:09:10.503Z,97981.00
2018-06-30T16:11:39.068Z,97981.00
2018-06-30T16:14:08.471Z,97986.00
2018-06-30T16:16:37.617Z,97983.00
2018-06-30T16:19:06.165Z,97974.00
2018-06-30T16:21:35.151Z,97974.00
2018-06-30T16:24:04.036Z,97972.00
2018-06-30T16:26:33.031Z,97978.00
2018-06-30T16:29:02.047Z,97976.00
2018-06-30T16:31:31.039Z,97975.00
2018-06-30T16:34:00.030Z,97972.00
2018-06-30T16:36:28.939Z,97977.00
2018-06-30T16:38:57.806Z,97973.00
2018-06-30T16:41:26.723Z,97975.00
2018-06-30T16:43:56.571Z,97979.00
2018-06-30T16:46:25.881Z,97974.00
2018-06-30T16:48:54.783Z,97976.00
2018-06-30T16:51:23.655Z,97978.00
2018-06-30T16:53:52.528Z,97979.00
2018-06-30T16:56:21.456Z,97981.00
2018-06-30T16:58:50.430Z,97986.00
2018-06-30T17:01:19.413Z,97984.00
2018-06-30T17:03:48.348Z,97979.00
2018-06-30T17:06:17.263Z,97974.00
2018-06-30T17:08:46.076Z,97979.00
2018-06-30T17:11:15.001Z,97979.00
2018-06-30T17:13:43.886Z,97975.00
2018-06-30T17:16:12.798Z,97974.00
2018-06-30T17:18:41.793Z,97974.00
2018-06-30T17:21:10.686Z,97977.00
2018-06-30T17:23:39.376Z,97975.00
2018-06-30T17:26:07.967Z,97973.00
2018-06-30T17:28:36.535Z,97972.00
2018-06-30T17:31:05.104Z,97971.00
2018-06-30T17:33:33.651Z,97968.00
2018-06-30T17:36:06.596Z,97965.00
2018-06-30T17:38:35.218Z,97965.00
2018-06-30T17:41:03.833Z,97968.00
2018-06-30T17:43:32.596Z,97965.00
2018-06-30T17:46:01.542Z,97971.00
2018-06-30T17:48:30.466Z,97975.00
2018-06-30T17:50:59.423Z,97980.00
2018-06-30T17:53:28.099Z,97980.00
2018-06-30T17:55:56.666Z,97986.00
2018-06-30T17:58:25.338Z,97988.00
2018-06-30T18:00:55.198Z,97995.00
2018-06-30T18:03:24.085Z,97993.00
2018-06-30T18:05:54.722Z,97999.00
2018-06-30T18:08:23.650Z,98003.00
2018-06-30T18:10:52.320Z,98001.00
2018-06-30T18:13:21.107Z,98004.00
2018-06-30T18:15:49.718Z,98009.00
2018-06-30T18:18:18.345Z,98010.00
2018-06-30T18:20:47.199Z,98014.00
2018-06-30T18:23:16.065Z,98016.00
2018-06-30T18:25:44.955Z,98018.00
2018-06-30T18:28:13.886Z,98017.00
2018-06-30T18:30:42.537Z,98016.00
2018-06-30T18:33:11.110Z,98020.00
2018-06-30T18:35:39.648Z,98016.00
2018-06-30T18:38:08.282Z,98018.00
2018-06-30T18:40:36.883Z,98022.00
2018-06-30T18:43:05.559Z,98024.00
2018-06-30T18:45:34.242Z,98025.00
2018-06-30T18:48:03.471Z,98025.00
2018-06-30T18:50:32.291Z,98025.00
2018-06-30T18:53:02.156Z,98028.00
2018-06-30T18:55:31.146Z,98028.00
2018-06-30T18:58:00.196Z,98032.00
2018-06-30T19:00:28.944Z,98031.00
2018-06-30T19:02:57.588Z,98041.00
2018-06-30T19:05:26.205Z,98035.00
2018-06-30T19:07:55.113Z,98041.00
2018-06-30T19:10:23.766Z,98042.00
2018-06-30T19:12:52.368Z,98042.00
2018-06-30T19:15:20.968Z,98042.00
2018-06-30T19:17:49.608Z,98049.00
2018-06-30T19:20:18.405Z,98054.00
2018-06-30T19:22:47.160Z,98053.00
2018-06-30T19:25:15.768Z,98058.00
2018-06-30T19:27:44.476Z,98061.00
2018-06-30T19:30:13.272Z,98065.00
2018-06-30T19:32:42.203Z,98066.00
2018-06-30T19:35:11.079Z,98071.00
2018-06-30T19:37:40.036Z,98077.00
2018-06-30T19:40:09.212Z,98080.00
2018-06-30T19:42:38.131Z,98085.00
2018-06-30T19:45:07.046Z,98091.00
2018-06-30T19:47:36.095Z,98091.00
2018-06-30T19:50:05.633Z,98096.00
2018-06-30T19:52:34.522Z,98094.00
2018-06-30T19:55:04.573Z,98100.00
2018-06-30T19:57:33.448Z,98104.00
2018-06-30T20:00:02.165Z,98102.00
2018-06-30T20:02:30.708Z,98102.00
2018-06-30T20:04:59.243Z,98112.00
2018-06-30T20:07:27.855Z,98115.00
2018-06-30T20:09:56.670Z,98117.00
2018-06-30T20:12:25.618Z,98116.00
2018-06-30T20:14:54.498Z,98123.00
2018-06-30T20:17:23.443Z,98124.00
2018-06-30T20:19:52.138Z,98125.00
2018-06-30T20:22:20.771Z,98124.00
2018-06-30T20:24:49.349Z,98131.00
2018-06-30T20:27:18.001Z,98137.00
2018-06-30T20:29:46.588Z,98137.00
2018-06-30T20:32:15.225Z,98140.00
2018-06-30T20:34:43.833Z,98143.00
2018-06-30T20:37:12.233Z,98143.00
2018-06-30T20:39:41.582Z,98150.00
2018-06-30T20:42:10.881Z,98152.00
2018-06-30T20:44:39.785Z,98151.00
2018-06-30T20:47:08.768Z,98161.00
2018-06-30T20:49:38.348Z,98160.00
2018-06-30T20:52:07.514Z,98163.00
2018-06-30T20:54:36.463Z,98163.00
2018-06-30T20:57:05.494Z,98169.00
2018-06-30T20:59:34.593Z,98172.00
2018-06-30T21:02:03.741Z,98169.00
2018-06-30T21:04:32.755Z,98171.00
2018-06-30T21:07:01.747Z,98169.00
2018-06-30T21:09:30.745Z,98171.00
2018-06-30T21:11:59.648Z,98174.00
2018-06-30T21:14:29.287Z,98173.00
2018-06-30T21:16:58.060Z,98177.00
2018-06-30T21:19:26.785Z,98178.00
2018-06-30T21:21:55.422Z,98180.00
2018-06-30T21:24:24.083Z,98182.00
2018-06-30T21:26:52.864Z,98185.00
2018-06-30T21:29:21.535Z,98184.00
2018-06-30T21:31:50.160Z,98186.00
2018-06-30T21:34:18.831Z,98191.00
2018-06-30T21:36:47.535Z,98190.00
2018-06-30T21:39:16.186Z,98192.00
2018-06-30T21:41:44.834Z,98188.00
2018-06-30T21:44:13.405Z,98189.00
2018-06-30T21:46:42.229Z,98194.00
2018-06-30T21:49:11.188Z,98199.00
2018-06-30T21:51:40.116Z,98199.00
2018-06-30T21:54:10.278Z,98200.00
2018-06-30T21:56:39.033Z,98205.00
2018-06-30T21:59:07.916Z,98201.00
2018-06-30T22:01:37.634Z,98206.00
2018-06-30T22:04:07.351Z,98212.00
2018-06-30T22:06:36.070Z,98208.00
2018-06-30T22:09:08.134Z,98213.00
2018-06-30T22:11:36.844Z,98215.00
2018-06-30T22:14:05.655Z,98218.00
2018-06-30T22:16:34.547Z,98220.00
2018-06-30T22:19:03.486Z,98224.00
2018-06-30T22:21:32.449Z,98228.00
2018-06-30T22:24:01.306Z,98226.00
2018-06-30T22:26:30.443Z,98228.00
2018-06-30T22:28:59.296Z,98228.00
2018-06-30T22:31:28.287Z,98233.00
2018-06-30T22:33:57.281Z,98234.00
2018-06-30T22:36:25.999Z,98238.00
2018-06-30T22:38:54.628Z,98237.00
2018-06-30T22:41:23.349Z,98243.00
2018-06-30T22:43:52.046Z,98238.00
2018-06-30T22:46:20.878Z,98241.00
2018-06-30T22:48:49.815Z,98241.00
2018-06-30T22:51:18.701Z,98244.00
2018-06-30T22:53:47.747Z,98240.00
2018-06-30T22:56:16.730Z,98242.00
2018-06-30T22:58:45.672Z,98234.00
2018-06-30T23:01:14.652Z,98244.00
2018-06-30T23:03:43.598Z,98248.00
2018-06-30T23:06:12.256Z,98249.00
2018-06-30T23:08:46.486Z,98249.00
2018-06-30T23:11:15.064Z,98253.00
2018-06-30T23:13:43.633Z,98254.00
2018-06-30T23:16:12.184Z,98255.00
2018-06-30T23:18:40.746Z,98256.00
2018-06-30T23:21:09.368Z,98259.00
2018-06-30T23:23:37.967Z,98256.00
2018-06-30T23:26:06.739Z,98250.00
2018-06-30T23:28:35.655Z,98256.00
2018-06-30T23:31:04.601Z,98251.00
2018-06-30T23:33:33.435Z,98252.00
2018-06-30T23:36:02.163Z,98252.00
2018-06-30T23:38:30.757Z,98253.00
2018-06-30T23:40:59.315Z,98256.00
2018-06-30T23:43:27.845Z,98259.00
2018-06-30T23:45:56.615Z,98260.00
2018-06-30T23:48:25.488Z,98261.00
2018-06-30T23:50:54.385Z,98259.00
2018-06-30T23:53:23.247Z,98262.00
2018-06-30T23:55:51.948Z,98261.00
2018-06-30T23:58:20.525Z,98261.00
